Terminal Aerodrome Forecast
Issued by NWS

Home | Current Version | Previous Version | Text Only | Print | Product List | Glossary On
Versions: 1 2 3 4 5 6 7 8 9 10 11 12 13 14 15 16 17
000
FTPA31 PHFO 271731
TAFHMK
TAF
PHMK 271731Z 2718/2818 04014G22KT P6SM FEW030
     FM272000 04018G26KT P6SM SCT030 SCT050
     FM280400 07008G15KT P6SM FEW025 FEW035=

USA.gov is the U.S. government's official web portal to all federal, state and local government web resources and services.